Time;durP1;ratioP1;P1;durP2;ratioP2;P2;SDS_P1;SDS_P2;PMS_P1;PMS_P2;Temp;Humidity;BMP_temperature;BMP_pressure;BME280_temperature;BME280_humidity;BME280_pressure;Samples;Min_cycle;Max_cycle;Signal;HPM_P1;HPM_P2
2020/12/23 00:00:48;;;;;;;6.65;4.38;;;11.50;92.90;;;;;;4926124;28;92171;-82
2020/12/23 00:03:14;;;;;;;5.93;4.25;;;11.50;92.80;;;;;;4910346;28;95849;-82
2020/12/23 00:05:40;;;;;;;6.57;4.40;;;11.50;92.80;;;;;;4926878;28;92760;-82
2020/12/23 00:08:06;;;;;;;7.30;4.60;;;11.50;92.70;;;;;;4912263;28;91215;-82
2020/12/23 00:10:32;;;;;;;5.88;4.40;;;11.50;92.80;;;;;;4927596;28;91399;-82
2020/12/23 00:12:58;;;;;;;5.95;4.40;;;11.50;92.80;;;;;;4943558;28;91986;-82
2020/12/23 00:15:24;;;;;;;7.18;4.30;;;11.50;92.60;;;;;;4944415;28;91424;-82
2020/12/23 00:17:50;;;;;;;6.28;4.90;;;11.50;92.60;;;;;;4912299;28;91793;-82
2020/12/23 00:20:16;;;;;;;7.25;5.60;;;11.40;92.70;;;;;;4918058;28;92558;-81
2020/12/23 00:22:43;;;;;;;8.45;6.57;;;11.40;92.80;;;;;;4892156;28;95271;-83
2020/12/23 00:25:09;;;;;;;8.63;7.07;;;11.40;93.00;;;;;;4919693;28;94615;-82
2020/12/23 00:27:35;;;;;;;9.25;7.55;;;11.40;93.10;;;;;;4941574;28;92845;-82
2020/12/23 00:30:03;;;;;;;10.57;7.22;;;11.40;93.10;;;;;;4907996;28;91922;-82
2020/12/23 00:32:29;;;;;;;8.43;6.07;;;11.40;93.10;;;;;;4905352;28;94595;-83
2020/12/23 00:34:56;;;;;;;7.90;5.43;;;11.40;93.00;;;;;;4905933;28;92709;-82
2020/12/23 00:37:22;;;;;;;7.38;5.75;;;11.40;92.90;;;;;;4907358;28;92252;-83
2020/12/23 00:39:48;;;;;;;9.40;5.95;;;11.40;92.90;;;;;;4911419;28;91622;-84
2020/12/23 00:42:15;;;;;;;8.43;5.88;;;11.40;92.80;;;;;;4922220;28;94815;-83
2020/12/23 00:44:41;;;;;;;8.05;4.78;;;11.40;92.80;;;;;;4929183;28;94758;-82
2020/12/23 00:47:07;;;;;;;7.07;4.97;;;11.40;92.80;;;;;;4963554;28;91193;-81
2020/12/23 00:49:34;;;;;;;7.93;6.10;;;11.40;92.80;;;;;;4963647;28;91581;-82
2020/12/23 00:52:00;;;;;;;6.90;4.80;;;11.40;92.70;;;;;;4971067;28;92726;-81
2020/12/23 00:54:28;;;;;;;9.40;5.15;;;11.50;92.60;;;;;;4955508;28;95504;-81
2020/12/23 00:56:54;;;;;;;7.35;5.28;;;11.40;92.60;;;;;;4962194;28;91817;-81
2020/12/23 00:59:20;;;;;;;6.82;4.88;;;11.40;92.50;;;;;;4979024;28;91952;-82
2020/12/23 01:01:46;;;;;;;7.00;4.95;;;11.40;92.60;;;;;;4944200;28;94682;-82
2020/12/23 01:04:13;;;;;;;7.97;5.38;;;11.40;92.60;;;;;;4960421;28;94522;-82
2020/12/23 01:06:39;;;;;;;7.65;5.38;;;11.40;92.60;;;;;;4953003;28;91947;-82
2020/12/23 01:09:05;;;;;;;10.32;5.47;;;11.40;92.60;;;;;;4941496;28;92593;-82
2020/12/23 01:11:31;;;;;;;7.30;4.93;;;11.40;92.50;;;;;;4925314;28;94972;-82
2020/12/23 01:13:57;;;;;;;5.07;4.28;;;11.40;92.40;;;;;;4941249;28;94798;-82
2020/12/23 01:16:23;;;;;;;5.43;4.18;;;11.50;92.30;;;;;;4941147;28;92966;-82
2020/12/23 01:18:50;;;;;;;5.20;4.20;;;11.50;92.20;;;;;;4941207;28;91834;-81
2020/12/23 01:21:17;;;;;;;6.30;4.82;;;11.50;92.20;;;;;;4957345;28;92157;-82
2020/12/23 01:23:43;;;;;;;7.88;4.82;;;11.50;92.10;;;;;;4931093;28;92656;-82
2020/12/23 01:26:09;;;;;;;7.78;4.53;;;11.50;92.00;;;;;;4978254;28;91328;-82
2020/12/23 01:28:35;;;;;;;6.20;4.45;;;11.50;92.00;;;;;;4946337;28;91886;-82
2020/12/23 01:31:06;;;;;;;6.55;4.40;;;11.50;92.00;;;;;;4950362;28;92167;-82
2020/12/23 01:33:33;;;;;;;7.60;4.80;;;11.50;92.00;;;;;;4978642;28;92411;-82
2020/12/23 01:35:59;;;;;;;5.95;4.63;;;11.50;92.00;;;;;;4961370;28;91198;-82
2020/12/23 01:38:26;;;;;;;6.47;5.22;;;11.50;92.10;;;;;;4961414;28;92105;-81
2020/12/23 01:41:00;;;;;;;9.38;5.78;;;11.50;92.10;;;;;;4960913;28;95793;-81
2020/12/23 01:43:27;;;;;;;8.45;5.38;;;11.50;92.10;;;;;;4940480;28;94100;-82
2020/12/23 01:45:54;;;;;;;7.25;6.32;;;11.40;92.10;;;;;;4927334;28;91781;-82
2020/12/23 01:48:28;;;;;;;8.52;6.05;;;11.40;92.20;;;;;;4926865;28;92176;-82
2020/12/23 01:50:57;;;;;;;7.35;5.38;;;11.40;92.20;;;;;;4942456;28;94476;-82
2020/12/23 01:53:26;;;;;;;6.80;4.82;;;11.40;92.10;;;;;;4958954;28;94561;-82
2020/12/23 01:55:53;;;;;;;8.05;5.20;;;11.40;92.10;;;;;;4960095;28;91979;-82
2020/12/23 01:58:19;;;;;;;7.20;4.68;;;11.40;92.30;;;;;;4943448;28;91154;-82
2020/12/23 02:00:49;;;;;;;5.60;4.30;;;11.30;92.30;;;;;;4942728;28;91892;-82
2020/12/23 02:03:21;;;;;;;6.38;4.53;;;11.30;92.30;;;;;;4943152;28;92912;-82
2020/12/23 02:05:47;;;;;;;5.70;4.90;;;11.30;92.30;;;;;;4943049;28;92394;-82
2020/12/23 02:08:14;;;;;;;6.22;4.57;;;11.30;92.70;;;;;;4942142;28;92061;-82
2020/12/23 02:10:40;;;;;;;5.10;4.22;;;11.30;92.40;;;;;;4958962;28;91854;-81
2020/12/23 02:13:06;;;;;;;4.80;4.00;;;11.30;92.30;;;;;;4942183;28;93357;-82
2020/12/23 02:15:32;;;;;;;5.63;4.55;;;11.30;92.30;;;;;;4942640;28;91772;-83
2020/12/23 02:18:00;;;;;;;7.63;4.60;;;11.30;92.30;;;;;;4958531;28;91799;-83
2020/12/23 02:20:51;;;;;;;6.72;4.35;;;11.30;92.30;;;;;;4940672;28;92212;-84
2020/12/23 02:23:17;;;;;;;6.47;4.32;;;11.30;92.30;;;;;;4948969;28;91707;-83
2020/12/23 02:25:43;;;;;;;6.88;4.82;;;11.30;92.20;;;;;;4932673;28;91122;-83
2020/12/23 02:28:09;;;;;;;7.63;5.50;;;11.30;92.20;;;;;;4965062;28;91274;-83
2020/12/23 02:30:35;;;;;;;12.60;6.50;;;11.30;92.10;;;;;;4964265;28;92884;-84
2020/12/23 02:41:06;;;;;;;7.03;5.20;;;11.30;91.90;;;;;;5150115;23;93778;-83
2020/12/23 02:43:32;;;;;;;8.55;5.47;;;11.30;91.90;;;;;;5004300;28;91470;-83
2020/12/23 03:02:29;;;;;;;7.65;6.15;;;11.40;91.90;;;;;;5490414;23;94156;-83
2020/12/23 03:04:55;;;;;;;8.93;6.78;;;11.40;91.90;;;;;;4891481;28;94364;-84
2020/12/23 03:07:21;;;;;;;9.85;5.90;;;11.40;91.80;;;;;;4892118;28;91822;-84
2020/12/23 03:09:47;;;;;;;9.60;6.18;;;11.40;91.70;;;;;;4907481;28;93239;-84
2020/12/23 03:12:13;;;;;;;7.00;5.60;;;11.40;91.80;;;;;;4892823;28;92202;-82
2020/12/23 03:14:39;;;;;;;7.18;6.05;;;11.40;91.90;;;;;;4898600;28;94543;-83
2020/12/23 03:17:05;;;;;;;6.85;5.80;;;11.40;91.80;;;;;;4922100;28;92037;-83
2020/12/23 03:19:31;;;;;;;9.20;7.63;;;11.40;91.90;;;;;;4946619;28;91789;-83
2020/12/23 03:21:57;;;;;;;7.88;6.50;;;11.40;91.90;;;;;;4928992;28;95999;-84
2020/12/23 03:24:23;;;;;;;7.38;6.15;;;11.40;91.90;;;;;;4947001;28;92751;-83
2020/12/23 03:26:50;;;;;;;7.85;7.05;;;11.40;91.90;;;;;;4915109;28;92074;-83
2020/12/23 03:29:16;;;;;;;9.80;6.72;;;11.40;91.90;;;;;;4914382;28;91439;-83
2020/12/23 03:31:42;;;;;;;7.78;6.78;;;11.40;91.90;;;;;;4946531;28;94805;-83
2020/12/23 03:34:08;;;;;;;8.20;6.20;;;11.40;91.90;;;;;;4947779;28;91358;-83
2020/12/23 03:36:34;;;;;;;7.45;6.60;;;11.40;91.90;;;;;;4930894;28;91333;-83
2020/12/23 03:39:00;;;;;;;8.60;6.72;;;11.40;91.70;;;;;;4930987;28;91212;-83
2020/12/23 03:41:26;;;;;;;7.05;6.35;;;11.40;91.60;;;;;;4913817;28;94913;-83
2020/12/23 04:11:42;;;;;;;10.60;7.28;;;11.30;91.70;;;;;;5626428;23;93576;-82
2020/12/23 04:14:08;;;;;;;7.90;6.32;;;11.30;91.70;;;;;;4883322;29;94821;-82
2020/12/23 04:16:34;;;;;;;10.63;7.30;;;11.30;91.70;;;;;;4886543;28;92804;-82
2020/12/23 04:19:01;;;;;;;8.05;7.03;;;11.30;91.70;;;;;;4902858;28;91351;-82
2020/12/23 04:21:27;;;;;;;7.45;6.68;;;11.40;91.70;;;;;;4901654;28;92001;-82
2020/12/23 04:23:53;;;;;;;11.30;7.82;;;11.30;91.50;;;;;;4872204;28;95087;-81
2020/12/23 04:26:19;;;;;;;9.60;6.65;;;11.40;91.50;;;;;;4903473;28;93755;-82
2020/12/23 04:28:46;;;;;;;9.77;7.05;;;11.30;91.50;;;;;;4903301;28;92376;-82
2020/12/23 04:31:12;;;;;;;8.82;7.05;;;11.40;91.50;;;;;;4893162;28;91178;-83
2020/12/23 04:33:38;;;;;;;11.27;6.90;;;11.40;91.50;;;;;;4917387;28;95826;-82
2020/12/23 04:36:04;;;;;;;10.38;6.88;;;11.40;91.50;;;;;;4884709;28;93850;-82
2020/12/23 04:38:30;;;;;;;11.07;6.82;;;11.40;91.40;;;;;;4899808;28;92752;-82
2020/12/23 04:40:56;;;;;;;9.43;7.18;;;11.30;91.50;;;;;;4866204;28;91921;-82
2020/12/23 04:43:23;;;;;;;9.27;7.05;;;11.40;91.50;;;;;;4881494;28;96449;-82
2020/12/23 04:45:49;;;;;;;8.82;6.95;;;11.30;91.50;;;;;;4897762;28;92110;-82
2020/12/23 04:48:20;;;;;;;13.23;8.95;;;11.30;91.40;;;;;;4865630;28;91922;-82
2020/12/23 04:50:52;;;;;;;16.40;11.00;;;11.30;91.40;;;;;;4864632;28;92196;-82
2020/12/23 04:53:18;;;;;;;15.55;12.02;;;11.30;91.40;;;;;;4866766;28;94845;-81
2020/12/23 04:55:45;;;;;;;11.65;8.57;;;11.30;91.30;;;;;;4874546;28;96288;-82
2020/12/23 04:58:12;;;;;;;9.90;7.68;;;11.30;91.40;;;;;;4895418;28;91891;-81
2020/12/23 05:00:38;;;;;;;9.75;7.47;;;11.30;91.40;;;;;;4859959;28;92092;-81
2020/12/23 05:03:04;;;;;;;12.63;7.72;;;11.30;91.50;;;;;;4859961;28;95575;-81
2020/12/23 05:05:30;;;;;;;11.02;8.25;;;11.20;91.50;;;;;;4862280;28;95019;-82
2020/12/23 05:07:56;;;;;;;10.07;6.38;;;11.20;91.50;;;;;;4879262;28;92216;-81
2020/12/23 05:10:27;;;;;;;12.98;8.15;;;11.20;91.60;;;;;;4878916;28;92120;-82
2020/12/23 05:12:53;;;;;;;14.32;8.25;;;11.20;91.60;;;;;;4878369;28;93467;-81
2020/12/23 05:15:19;;;;;;;13.27;9.00;;;11.20;91.60;;;;;;4877358;28;93606;-82
2020/12/23 05:17:45;;;;;;;10.05;8.02;;;11.20;91.60;;;;;;4878276;28;92125;-82
2020/12/23 05:20:12;;;;;;;10.82;7.68;;;11.20;91.80;;;;;;4893463;28;91575;-81
2020/12/23 05:22:38;;;;;;;9.43;7.80;;;11.10;91.90;;;;;;4894465;28;92286;-83
2020/12/23 05:25:04;;;;;;;14.65;9.70;;;11.20;92.00;;;;;;4894353;28;92393;-82
2020/12/23 05:27:33;;;;;;;10.70;8.55;;;11.10;92.00;;;;;;4907630;28;93415;-81
2020/12/23 05:30:02;;;;;;;15.05;10.57;;;11.10;92.10;;;;;;4892130;28;92088;-81
2020/12/23 05:32:28;;;;;;;10.18;9.07;;;11.10;92.10;;;;;;4871546;28;95393;-82
2020/12/23 05:34:59;;;;;;;11.27;9.30;;;11.10;92.20;;;;;;4882499;28;94411;-82
2020/12/23 05:37:26;;;;;;;11.20;9.32;;;11.10;92.20;;;;;;4860740;28;91955;-81
2020/12/23 05:39:52;;;;;;;12.80;10.05;;;11.10;92.10;;;;;;4893913;28;92028;-82
2020/12/23 05:42:19;;;;;;;16.58;9.30;;;11.10;92.20;;;;;;4892829;28;92240;-82
2020/12/23 05:44:52;;;;;;;13.23;9.20;;;11.10;92.10;;;;;;4876943;28;93703;-82
2020/12/23 05:47:26;;;;;;;10.10;7.72;;;11.10;92.00;;;;;;4879560;28;92002;-82
2020/12/23 05:49:53;;;;;;;11.98;9.40;;;11.10;91.90;;;;;;4880407;28;92067;-82
2020/12/23 05:52:23;;;;;;;13.18;8.93;;;11.10;91.90;;;;;;4877798;28;96929;-82
2020/12/23 05:54:53;;;;;;;11.98;8.93;;;11.10;91.80;;;;;;4913957;28;96513;-82
2020/12/23 05:57:21;;;;;;;15.30;10.05;;;11.00;91.70;;;;;;4894515;28;91778;-82
2020/12/23 05:59:47;;;;;;;17.80;10.15;;;10.90;91.80;;;;;;4883603;28;91861;-83
2020/12/23 06:02:14;;;;;;;16.13;9.75;;;10.80;92.10;;;;;;4898158;28;93237;-82
2020/12/23 06:04:44;;;;;;;14.30;9.70;;;10.80;91.80;;;;;;4882094;28;95394;-82
2020/12/23 06:07:11;;;;;;;14.07;8.30;;;10.80;91.60;;;;;;4900995;28;91748;-81
2020/12/23 06:09:42;;;;;;;13.80;8.52;;;10.80;91.40;;;;;;4870179;28;91168;-82
2020/12/23 06:12:19;;;;;;;13.67;8.30;;;10.80;91.30;;;;;;4905124;28;94922;-82
2020/12/23 06:14:54;;;;;;;12.70;8.30;;;10.80;91.20;;;;;;4922064;28;94664;-84
2020/12/23 06:17:21;;;;;;;13.50;7.80;;;10.80;90.90;;;;;;4908189;28;93012;-82
2020/12/23 06:19:50;;;;;;;13.15;7.22;;;10.80;90.60;;;;;;4928630;28;91150;-82
2020/12/23 06:22:16;;;;;;;13.50;8.48;;;10.70;90.70;;;;;;4912023;28;95097;-82
2020/12/23 06:24:43;;;;;;;18.52;9.82;;;10.60;90.90;;;;;;4911497;28;94169;-83
2020/12/23 06:27:10;;;;;;;17.48;10.25;;;10.70;90.90;;;;;;4928573;28;91724;-82
2020/12/23 06:35:04;;;;;;;;;;;10.60;90.70;;;;;;5332795;23;93558;-84
2020/12/23 06:37:32;;;;;;;26.65;11.68;;;10.60;90.70;;;;;;4897947;28;91182;-83
2020/12/23 06:39:58;;;;;;;23.00;11.43;;;10.60;90.80;;;;;;4911663;28;91719;-84
2020/12/23 06:42:29;;;;;;;18.67;9.95;;;10.60;90.70;;;;;;4893316;28;95787;-83
2020/12/23 06:44:59;;;;;;;22.17;10.40;;;10.60;90.70;;;;;;4911896;28;95654;-83
2020/12/23 06:47:32;;;;;;;16.08;8.15;;;10.60;90.60;;;;;;4912057;28;91143;-83
2020/12/23 06:50:04;;;;;;;14.15;8.23;;;10.70;90.30;;;;;;4928126;28;91228;-82
2020/12/23 06:55:29;;;;;;;15.55;9.15;;;10.70;90.30;;;;;;5880559;23;94917;31
2020/12/23 06:57:55;;;;;;;19.83;9.55;;;10.70;90.30;;;;;;4921695;28;92103;-83
2020/12/23 07:00:23;;;;;;;20.52;9.55;;;10.80;90.50;;;;;;5268064;23;93029;-81
2020/12/23 07:02:57;;;;;;;15.82;9.38;;;10.80;90.50;;;;;;4857429;29;95689;-82
2020/12/23 07:13:38;;;;;;;13.30;8.63;;;10.80;90.30;;;;;;4890535;28;95295;-82
2020/12/23 07:21:29;;;;;;;;;;;10.80;90.60;;;;;;5090005;23;93720;-77
2020/12/23 07:23:57;;;;;;;12.68;8.90;;;10.70;90.50;;;;;;4872914;28;96624;-77
2020/12/23 07:26:24;;;;;;;13.88;9.95;;;10.70;90.50;;;;;;4871158;28;93408;-77
2020/12/23 07:28:51;;;;;;;12.88;9.90;;;10.70;90.40;;;;;;4894746;28;92032;-77
2020/12/23 07:31:17;;;;;;;12.55;9.73;;;10.60;90.60;;;;;;4885102;28;92166;-78
2020/12/23 07:33:44;;;;;;;14.23;9.52;;;10.50;90.80;;;;;;4852701;28;97180;-77
2020/12/23 07:36:10;;;;;;;14.00;9.85;;;10.50;90.70;;;;;;4853458;28;96453;-78
2020/12/23 07:38:38;;;;;;;13.15;9.55;;;10.50;90.90;;;;;;4886311;28;92640;-77
2020/12/23 07:41:04;;;;;;;12.02;9.93;;;10.50;90.70;;;;;;4863915;28;92106;-77
2020/12/23 07:43:30;;;;;;;14.63;10.35;;;10.50;90.90;;;;;;4890759;28;96402;-77
2020/12/23 07:45:57;;;;;;;16.17;11.38;;;10.50;90.80;;;;;;4889881;28;96089;-77
2020/12/23 07:48:25;;;;;;;14.75;10.38;;;10.60;90.70;;;;;;4861750;28;92323;-74
2020/12/23 07:50:53;;;;;;;16.52;11.07;;;10.50;90.60;;;;;;4846053;28;91529;-74
2020/12/23 07:53:21;;;;;;;16.55;11.30;;;10.50;90.70;;;;;;4876711;28;96602;-77
2020/12/23 07:55:49;;;;;;;17.00;11.73;;;10.60;90.50;;;;;;4883828;28;92930;-77
2020/12/23 07:58:15;;;;;;;18.33;12.57;;;10.60;90.20;;;;;;4879559;28;94126;-80
2020/12/23 08:00:45;;;;;;;16.55;12.00;;;10.60;90.30;;;;;;4847501;28;92390;-79
2020/12/23 08:03:12;;;;;;;21.63;12.73;;;10.50;90.40;;;;;;4892226;28;92402;-79
2020/12/23 08:05:39;;;;;;;22.00;13.30;;;10.50;90.50;;;;;;4888821;28;91880;-78
2020/12/23 08:08:08;;;;;;;17.75;10.80;;;10.40;90.60;;;;;;4860586;28;93915;-77
2020/12/23 08:10:35;;;;;;;17.25;12.13;;;10.50;91.00;;;;;;4859924;28;92161;-77
2020/12/23 08:13:03;;;;;;;14.18;11.27;;;10.60;90.70;;;;;;4850527;28;96181;-77
2020/12/23 08:15:30;;;;;;;16.55;10.13;;;10.60;90.00;;;;;;4876395;28;96567;-78
2020/12/23 08:18:10;;;;;;;16.25;10.23;;;10.60;89.90;;;;;;4887569;28;92484;-77
2020/12/23 08:20:36;;;;;;;15.13;10.48;;;10.50;90.10;;;;;;4894022;28;92300;-78
2020/12/23 08:23:03;;;;;;;13.15;9.23;;;10.60;90.00;;;;;;4864956;28;98038;-78
2020/12/23 08:25:30;;;;;;;15.73;9.70;;;10.60;89.70;;;;;;4878936;28;97560;-78
2020/12/23 08:27:58;;;;;;;17.58;9.73;;;10.60;89.60;;;;;;4894313;28;92486;-79
2020/12/23 08:30:26;;;;;;;15.57;9.77;;;10.60;89.40;;;;;;4856891;28;92294;-78
2020/12/23 08:33:05;;;;;;;18.52;9.73;;;10.70;89.20;;;;;;4889247;28;93446;-79
2020/12/23 08:35:42;;;;;;;14.82;10.35;;;10.60;89.10;;;;;;4859931;28;95432;-79
2020/12/23 08:38:21;;;;;;;18.13;10.48;;;10.70;89.10;;;;;;4899993;28;92053;-80
2020/12/23 08:40:56;;;;;;;16.58;11.13;;;10.70;89.30;;;;;;4879706;28;91378;-79
2020/12/23 08:43:29;;;;;;;20.35;11.02;;;10.70;89.10;;;;;;4860161;28;94796;-80
2020/12/23 08:45:57;;;;;;;17.27;10.60;;;10.70;89.30;;;;;;4878186;28;93574;-80
2020/12/23 08:48:28;;;;;;;17.17;10.68;;;10.70;89.50;;;;;;4879507;28;93625;-80
2020/12/23 08:51:03;;;;;;;19.40;10.90;;;10.70;89.10;;;;;;4881823;28;91983;-80
2020/12/23 08:53:35;;;;;;;18.95;10.65;;;10.70;89.30;;;;;;4879636;28;92668;-79
2020/12/23 08:56:24;;;;;;;14.38;9.27;;;10.70;89.80;;;;;;4878772;28;94685;-79
2020/12/23 08:58:56;;;;;;;16.15;10.55;;;10.70;89.70;;;;;;4879197;28;91832;-80
2020/12/23 09:01:23;;;;;;;22.55;12.02;;;10.70;89.80;;;;;;4881024;28;92007;-77
2020/12/23 09:03:59;;;;;;;21.13;12.23;;;10.80;89.70;;;;;;4877111;28;96287;-80
2020/12/23 09:06:24;;;;;;;20.17;11.52;;;10.80;89.50;;;;;;4907664;28;91636;-80
2020/12/23 09:08:50;;;;;;;20.25;13.25;;;10.90;89.40;;;;;;4890686;28;92080;-79
2020/12/23 09:11:16;;;;;;;19.02;12.93;;;10.90;89.10;;;;;;4887132;28;92119;-79
2020/12/23 09:13:42;;;;;;;20.10;13.68;;;10.90;89.10;;;;;;4884886;28;97449;-79
2020/12/23 09:16:07;;;;;;;18.88;12.65;;;10.90;89.40;;;;;;4887895;28;92705;-79
2020/12/23 09:18:33;;;;;;;18.15;11.90;;;10.90;89.60;;;;;;4871943;28;92130;-79
2020/12/23 09:21:01;;;;;;;17.52;11.77;;;10.90;89.60;;;;;;4904811;28;92199;-78
2020/12/23 09:23:27;;;;;;;21.02;10.85;;;11.00;89.50;;;;;;4889157;28;94495;-78
2020/12/23 09:25:54;;;;;;;17.02;11.73;;;11.10;89.20;;;;;;4881707;28;92727;-79
2020/12/23 09:28:20;;;;;;;18.15;10.55;;;11.20;88.80;;;;;;4899464;28;92296;-79
2020/12/23 09:30:52;;;;;;;15.13;10.65;;;11.20;87.90;;;;;;4875907;28;91917;-79
2020/12/23 09:33:20;;;;;;;15.88;10.43;;;11.30;87.90;;;;;;4862779;28;95860;-78
2020/12/23 09:35:50;;;;;;;17.15;11.30;;;11.30;87.50;;;;;;4850767;28;96683;-79
2020/12/23 09:38:27;;;;;;;16.48;10.68;;;11.40;87.70;;;;;;4844224;28;93178;-79
2020/12/23 09:41:00;;;;;;;14.38;10.68;;;11.40;87.70;;;;;;4870997;28;92169;-78
2020/12/23 09:43:27;;;;;;;17.67;11.52;;;11.40;86.30;;;;;;4885345;28;93113;-79
2020/12/23 09:45:54;;;;;;;13.73;10.32;;;11.40;86.80;;;;;;4868838;28;95411;-80
2020/12/23 09:48:22;;;;;;;16.02;10.73;;;11.40;87.40;;;;;;4867851;28;92278;-79
2020/12/23 09:50:48;;;;;;;18.65;10.95;;;11.40;87.20;;;;;;4866475;28;92106;-79
2020/12/23 09:53:16;;;;;;;15.52;10.35;;;11.40;87.40;;;;;;4867128;28;95993;-79
2020/12/23 09:55:43;;;;;;;15.30;10.15;;;11.50;87.40;;;;;;4869705;28;92453;-79
2020/12/23 09:58:10;;;;;;;14.68;9.55;;;11.50;86.10;;;;;;4871080;28;93474;-78
2020/12/23 10:00:35;;;;;;;13.32;9.35;;;11.50;86.90;;;;;;4855686;28;92741;-79
2020/12/23 10:03:01;;;;;;;15.18;11.02;;;11.50;86.70;;;;;;4853881;28;98072;-79
2020/12/23 10:05:29;;;;;;;11.75;9.00;;;11.60;86.70;;;;;;4874200;28;96348;-78
2020/12/23 10:07:54;;;;;;;11.60;7.55;;;11.60;87.00;;;;;;4871901;28;92191;-79
2020/12/23 10:10:20;;;;;;;10.57;8.18;;;11.70;85.90;;;;;;4888255;28;92311;-79
2020/12/23 10:12:46;;;;;;;11.07;7.85;;;11.80;84.20;;;;;;4872850;28;92167;-79
2020/12/23 10:15:12;;;;;;;11.00;7.95;;;11.80;83.30;;;;;;4866782;28;94847;-79
2020/12/23 10:17:38;;;;;;;16.05;8.75;;;11.90;83.80;;;;;;4869337;28;92121;-79
2020/12/23 10:20:05;;;;;;;14.52;7.25;;;12.00;83.80;;;;;;4900071;28;91586;-77
2020/12/23 10:22:31;;;;;;;14.18;9.35;;;12.10;83.40;;;;;;4871455;28;96392;-79
2020/12/23 10:24:57;;;;;;;11.65;8.75;;;12.10;82.30;;;;;;4877619;28;95298;-78
2020/12/23 10:27:23;;;;;;;13.32;8.65;;;12.10;82.40;;;;;;4887606;28;93461;-79
2020/12/23 10:29:49;;;;;;;13.85;7.85;;;12.20;82.10;;;;;;4856206;28;92200;-79
2020/12/23 10:32:15;;;;;;;11.63;7.88;;;12.20;81.30;;;;;;4887878;28;92997;-79
2020/12/23 10:34:41;;;;;;;11.52;7.70;;;12.10;79.70;;;;;;4896411;28;95828;-79
2020/12/23 10:37:07;;;;;;;11.13;7.65;;;12.00;81.50;;;;;;4897601;28;92049;-78
2020/12/23 10:39:33;;;;;;;15.05;7.70;;;12.00;81.90;;;;;;4873813;28;92143;-80
2020/12/23 10:41:59;;;;;;;10.95;7.10;;;12.10;82.00;;;;;;4873961;28;95472;-79
2020/12/23 10:44:25;;;;;;;9.75;7.38;;;12.10;81.20;;;;;;4891851;28;92895;-80
2020/12/23 10:46:58;;;;;;;11.63;7.97;;;11.90;81.60;;;;;;4874154;28;92130;-79
2020/12/23 10:49:25;;;;;;;12.10;7.55;;;11.90;82.50;;;;;;4858376;28;92859;-80
2020/12/23 10:51:52;;;;;;;9.25;7.18;;;12.00;82.90;;;;;;4883669;28;97010;-80
2020/12/23 10:54:19;;;;;;;10.73;7.55;;;12.10;82.50;;;;;;4890717;28;92708;-79
2020/12/23 10:56:45;;;;;;;11.95;6.75;;;12.20;82.00;;;;;;4905489;28;91990;-79
2020/12/23 10:59:11;;;;;;;13.15;7.57;;;12.30;80.70;;;;;;4893829;28;92195;-79
2020/12/23 11:01:37;;;;;;;9.27;7.18;;;12.20;80.70;;;;;;4887514;28;95751;-77
2020/12/23 11:04:04;;;;;;;12.55;7.90;;;12.30;81.00;;;;;;4904830;28;92599;-79
2020/12/23 11:06:31;;;;;;;14.75;8.25;;;12.30;81.10;;;;;;4874061;28;91940;-78
2020/12/23 11:08:57;;;;;;;15.68;9.48;;;12.30;81.40;;;;;;4904635;28;91428;-80
2020/12/23 11:11:23;;;;;;;14.38;10.00;;;12.30;81.70;;;;;;4873196;28;95963;-80
2020/12/23 11:13:49;;;;;;;14.85;10.32;;;12.20;81.70;;;;;;4897809;28;94576;-80
2020/12/23 11:16:16;;;;;;;15.30;10.05;;;12.20;82.20;;;;;;4878387;28;93021;-79
2020/12/23 11:18:45;;;;;;;13.57;10.18;;;12.20;82.50;;;;;;4873296;28;92236;-79
2020/12/23 11:21:11;;;;;;;13.88;11.10;;;12.30;83.50;;;;;;4888093;28;92386;-77
2020/12/23 11:23:37;;;;;;;16.25;12.00;;;12.20;82.20;;;;;;4889392;28;92491;-78
2020/12/23 11:26:03;;;;;;;17.08;11.82;;;12.10;82.10;;;;;;4881240;28;92382;-79
2020/12/23 11:28:32;;;;;;;17.60;10.85;;;12.00;83.50;;;;;;4860012;28;92755;-79
2020/12/23 11:31:03;;;;;;;16.13;11.50;;;12.00;84.20;;;;;;4860125;28;95475;-78
2020/12/23 11:33:29;;;;;;;14.07;11.65;;;12.00;84.00;;;;;;4861921;28;93955;-79
2020/12/23 11:35:55;;;;;;;23.83;15.95;;;12.00;84.20;;;;;;4888660;28;93293;-79
2020/12/23 11:38:22;;;;;;;23.33;17.52;;;12.00;84.30;;;;;;4871986;28;92079;-78
2020/12/23 11:40:49;;;;;;;23.92;17.73;;;12.00;84.40;;;;;;4892399;28;94057;-79
2020/12/23 11:43:15;;;;;;;22.52;14.15;;;12.00;84.70;;;;;;4888922;28;93937;-78
2020/12/23 11:45:41;;;;;;;25.10;15.68;;;12.10;85.10;;;;;;4905489;28;92417;-79
2020/12/23 11:48:07;;;;;;;22.48;14.60;;;12.00;85.00;;;;;;4895552;28;92178;-77
2020/12/23 11:50:33;;;;;;;27.75;16.95;;;11.90;85.20;;;;;;4908227;28;96553;-78
2020/12/23 11:52:59;;;;;;;23.15;14.82;;;12.00;86.00;;;;;;4906057;28;92340;-78
2020/12/23 11:55:25;;;;;;;22.05;16.88;;;11.90;86.00;;;;;;4904375;28;92028;-78
2020/12/23 11:57:51;;;;;;;26.30;17.63;;;11.90;85.90;;;;;;4890861;28;91813;-77
2020/12/23 12:00:17;;;;;;;27.60;18.42;;;11.90;86.00;;;;;;4886042;28;93075;-76
2020/12/23 12:02:43;;;;;;;25.10;16.02;;;11.90;86.40;;;;;;4901100;28;95191;-76
2020/12/23 12:05:10;;;;;;;26.98;17.33;;;11.90;86.80;;;;;;4877715;28;93072;-77
2020/12/23 12:07:36;;;;;;;24.70;17.55;;;11.90;86.80;;;;;;4887338;28;92009;-77
2020/12/23 12:10:05;;;;;;;26.63;17.70;;;11.80;86.90;;;;;;4899144;28;96267;-77
2020/12/23 12:12:31;;;;;;;24.75;17.65;;;11.90;87.00;;;;;;4881512;28;96447;-77
2020/12/23 12:14:57;;;;;;;25.48;18.83;;;11.90;87.00;;;;;;4894372;28;92505;-76
2020/12/23 12:17:23;;;;;;;19.52;14.95;;;11.90;87.00;;;;;;4904732;28;92473;-76
2020/12/23 12:19:50;;;;;;;23.33;15.60;;;11.90;86.50;;;;;;4867516;28;96622;-77
2020/12/23 12:22:16;;;;;;;24.95;16.08;;;11.90;86.90;;;;;;4862417;28;93360;-77
2020/12/23 12:24:42;;;;;;;22.35;15.15;;;11.90;86.80;;;;;;4876466;28;92151;-77
2020/12/23 12:27:08;;;;;;;23.10;15.95;;;11.80;87.20;;;;;;4855482;28;92510;-75
2020/12/23 12:29:34;;;;;;;19.50;12.40;;;11.80;87.30;;;;;;4901783;28;96872;-77
2020/12/23 12:32:00;;;;;;;18.58;13.13;;;11.90;87.00;;;;;;4874702;28;97074;-76
2020/12/23 12:34:27;;;;;;;17.10;12.50;;;11.80;87.20;;;;;;4905128;28;92669;-76
2020/12/23 12:36:53;;;;;;;18.85;11.60;;;11.70;87.70;;;;;;4897350;28;92146;-79
2020/12/23 12:39:19;;;;;;;19.10;13.07;;;11.60;88.20;;;;;;4870439;28;95402;-76
2020/12/23 12:41:45;;;;;;;17.38;11.15;;;11.60;88.20;;;;;;4868269;28;96253;-76
2020/12/23 12:44:11;;;;;;;17.70;11.43;;;11.60;88.20;;;;;;4869069;28;92083;-77
2020/12/23 12:46:37;;;;;;;17.95;11.93;;;11.70;88.40;;;;;;4871917;28;91930;-76
2020/12/23 12:49:04;;;;;;;16.63;11.90;;;11.60;88.70;;;;;;4870537;28;97033;-76
2020/12/23 12:51:30;;;;;;;20.92;12.15;;;11.60;88.70;;;;;;4868842;28;92475;-78
2020/12/23 12:53:56;;;;;;;20.17;12.70;;;11.60;88.50;;;;;;4886623;28;93116;-76
2020/12/23 12:56:30;;;;;;;20.45;12.95;;;11.60;88.40;;;;;;4868635;28;91991;-76
2020/12/23 12:59:00;;;;;;;18.65;13.52;;;11.60;88.60;;;;;;4869924;28;96978;-76
2020/12/23 13:01:37;;;;;;;21.77;13.05;;;11.60;88.70;;;;;;4854228;28;95998;-76
2020/12/23 13:04:04;;;;;;;21.25;15.32;;;11.60;88.40;;;;;;4871756;28;92371;-76
2020/12/23 13:06:29;;;;;;;22.05;14.43;;;11.70;88.10;;;;;;4886860;28;92184;-76
2020/12/23 13:08:55;;;;;;;19.70;13.65;;;11.70;88.40;;;;;;4886781;28;92734;-76
2020/12/23 13:11:22;;;;;;;17.52;12.27;;;11.60;88.20;;;;;;4891773;28;92934;-76
2020/12/23 13:13:52;;;;;;;19.83;13.45;;;11.60;88.60;;;;;;4860461;28;92028;-76
2020/12/23 13:16:18;;;;;;;21.88;15.20;;;11.60;88.90;;;;;;4869741;28;92435;-76
2020/12/23 13:18:44;;;;;;;22.10;15.70;;;11.50;88.90;;;;;;4870007;28;97667;-76
2020/12/23 13:21:11;;;;;;;18.92;13.82;;;11.50;89.60;;;;;;4888848;28;93190;-76
2020/12/23 13:23:37;;;;;;;19.85;14.50;;;11.40;90.00;;;;;;4895375;28;92226;-76
2020/12/23 13:26:03;;;;;;;21.20;14.85;;;11.40;90.10;;;;;;4865572;29;92217;-76
2020/12/23 13:28:29;;;;;;;21.73;15.25;;;11.50;90.10;;;;;;4868314;28;96539;-78
2020/12/23 13:30:58;;;;;;;24.05;16.48;;;11.50;90.10;;;;;;4885022;28;92678;-79
2020/12/23 13:33:24;;;;;;;27.15;16.77;;;11.50;89.90;;;;;;4870392;29;92362;-77
2020/12/23 13:35:51;;;;;;;23.92;16.23;;;11.50;90.00;;;;;;4854743;29;91827;-78
2020/12/23 13:38:18;;;;;;;27.42;18.63;;;11.50;90.00;;;;;;4870514;28;93196;-79
2020/12/23 13:40:44;;;;;;;24.45;18.02;;;11.50;90.20;;;;;;4853530;29;95881;-78
2020/12/23 13:43:11;;;;;;;28.00;18.65;;;11.40;90.30;;;;;;4852764;28;93219;-77
2020/12/23 13:45:37;;;;;;;33.50;22.33;;;11.40;90.40;;;;;;4883158;28;92628;-79
2020/12/23 13:48:04;;;;;;;32.40;22.10;;;11.40;90.50;;;;;;4890178;28;96518;-79
2020/12/23 13:50:36;;;;;;;37.50;24.80;;;11.50;90.50;;;;;;4878642;28;94849;-78